sensor_id;sensor_type;location;lat;lon;timestamp;pressure;altitude;pressure_sealevel;temperature;humidity
42591;BME280;28218;53.342;-6.216;2023-11-22T00:01:32;102865.22;;;10.06;100.00
42591;BME280;28218;53.342;-6.216;2023-11-22T00:04:01;102871.31;;;10.06;100.00
42591;BME280;28218;53.342;-6.216;2023-11-22T00:06:30;102874.91;;;10.05;100.00
42591;BME280;28218;53.342;-6.216;2023-11-22T00:08:58;102859.72;;;10.09;100.00
42591;BME280;28218;53.342;-6.216;2023-11-22T00:11:26;102852.78;;;10.08;100.00
42591;BME280;28218;53.342;-6.216;2023-11-22T00:13:55;102849.19;;;10.09;100.00
42591;BME280;28218;53.342;-6.216;2023-11-22T00:16:24;102851.06;;;10.07;100.00
42591;BME280;28218;53.342;-6.216;2023-11-22T00:18:53;102850.38;;;10.05;100.00
42591;BME280;28218;53.342;-6.216;2023-11-22T00:21:22;102848.56;;;10.05;100.00
42591;BME280;28218;53.342;-6.216;2023-11-22T00:23:50;102847.50;;;10.08;100.00
42591;BME280;28218;53.342;-6.216;2023-11-22T00:26:18;102852.78;;;10.08;100.00
42591;BME280;28218;53.342;-6.216;2023-11-22T00:28:46;102845.59;;;10.10;100.00
42591;BME280;28218;53.342;-6.216;2023-11-22T00:31:16;102843.78;;;10.10;100.00
42591;BME280;28218;53.342;-6.216;2023-11-22T00:33:44;102839.38;;;10.11;100.00
42591;BME280;28218;53.342;-6.216;2023-11-22T00:36:14;102829.56;;;10.13;100.00
42591;BME280;28218;53.342;-6.216;2023-11-22T00:38:43;102830.41;;;10.13;100.00
42591;BME280;28218;53.342;-6.216;2023-11-22T00:41:12;102825.97;;;10.14;100.00
42591;BME280;28218;53.342;-6.216;2023-11-22T00:43:41;102819.88;;;10.13;100.00
42591;BME280;28218;53.342;-6.216;2023-11-22T00:46:09;102823.34;;;10.14;100.00
42591;BME280;28218;53.342;-6.216;2023-11-22T00:48:37;102793.53;;;10.13;100.00
42591;BME280;28218;53.342;-6.216;2023-11-22T00:51:06;102790.06;;;10.13;100.00
42591;BME280;28218;53.342;-6.216;2023-11-22T00:53:38;102795.41;;;10.11;100.00
42591;BME280;28218;53.342;-6.216;2023-11-22T00:56:06;102806.81;;;10.12;100.00
42591;BME280;28218;53.342;-6.216;2023-11-22T00:58:35;102811.13;;;10.13;100.00
42591;BME280;28218;53.342;-6.216;2023-11-22T01:01:04;102801.44;;;10.13;100.00
42591;BME280;28218;53.342;-6.216;2023-11-22T01:03:32;102790.78;;;10.15;100.00
42591;BME280;28218;53.342;-6.216;2023-11-22T01:06:00;102788.88;;;10.17;100.00
42591;BME280;28218;53.342;-6.216;2023-11-22T01:08:29;102799.16;;;10.20;100.00
42591;BME280;28218;53.342;-6.216;2023-11-22T01:10:59;102785.69;;;10.24;100.00
42591;BME280;28218;53.342;-6.216;2023-11-22T01:13:27;102780.31;;;10.26;100.00
42591;BME280;28218;53.342;-6.216;2023-11-22T01:15:55;102771.53;;;10.26;100.00
42591;BME280;28218;53.342;-6.216;2023-11-22T01:18:23;102771.19;;;10.30;100.00
42591;BME280;28218;53.342;-6.216;2023-11-22T01:20:52;102766.78;;;10.31;100.00
42591;BME280;28218;53.342;-6.216;2023-11-22T01:23:20;102776.38;;;10.32;100.00
42591;BME280;28218;53.342;-6.216;2023-11-22T01:25:48;102790.16;;;10.35;100.00
42591;BME280;28218;53.342;-6.216;2023-11-22T01:28:18;102788.94;;;10.39;100.00
42591;BME280;28218;53.342;-6.216;2023-11-22T01:30:46;102794.84;;;10.43;100.00
42591;BME280;28218;53.342;-6.216;2023-11-22T01:33:15;102800.09;;;10.43;100.00
42591;BME280;28218;53.342;-6.216;2023-11-22T01:35:44;102799.03;;;10.45;100.00
42591;BME280;28218;53.342;-6.216;2023-11-22T01:38:12;102799.75;;;10.47;100.00
42591;BME280;28218;53.342;-6.216;2023-11-22T01:40:43;102794.25;;;10.51;100.00
42591;BME280;28218;53.342;-6.216;2023-11-22T01:43:13;102790.88;;;10.48;100.00
42591;BME280;28218;53.342;-6.216;2023-11-22T01:45:44;102796.06;;;10.50;100.00
42591;BME280;28218;53.342;-6.216;2023-11-22T01:48:13;102804.81;;;10.51;100.00
42591;BME280;28218;53.342;-6.216;2023-11-22T01:50:42;102776.53;;;10.53;100.00
42591;BME280;28218;53.342;-6.216;2023-11-22T01:53:12;102779.91;;;10.55;100.00
42591;BME280;28218;53.342;-6.216;2023-11-22T01:55:42;102773.66;;;10.56;100.00
42591;BME280;28218;53.342;-6.216;2023-11-22T01:58:11;102774.38;;;10.58;100.00
42591;BME280;28218;53.342;-6.216;2023-11-22T02:00:45;102762.91;;;10.59;100.00
42591;BME280;28218;53.342;-6.216;2023-11-22T02:03:16;102755.91;;;10.58;100.00
42591;BME280;28218;53.342;-6.216;2023-11-22T02:05:45;102747.91;;;10.59;100.00
42591;BME280;28218;53.342;-6.216;2023-11-22T02:08:13;102734.59;;;10.61;100.00
42591;BME280;28218;53.342;-6.216;2023-11-22T02:10:42;102719.63;;;10.61;100.00
42591;BME280;28218;53.342;-6.216;2023-11-22T02:13:11;102715.19;;;10.62;100.00
42591;BME280;28218;53.342;-6.216;2023-11-22T02:15:39;102708.84;;;10.64;100.00
42591;BME280;28218;53.342;-6.216;2023-11-22T02:18:09;102707.19;;;10.63;100.00
42591;BME280;28218;53.342;-6.216;2023-11-22T02:20:39;102700.94;;;10.64;100.00
42591;BME280;28218;53.342;-6.216;2023-11-22T02:23:10;102692.91;;;10.66;100.00
42591;BME280;28218;53.342;-6.216;2023-11-22T02:25:38;102665.56;;;10.67;100.00
42591;BME280;28218;53.342;-6.216;2023-11-22T02:28:06;102673.59;;;10.65;100.00
42591;BME280;28218;53.342;-6.216;2023-11-22T02:30:35;102670.00;;;10.66;100.00
42591;BME280;28218;53.342;-6.216;2023-11-22T02:33:04;102666.41;;;10.67;100.00
42591;BME280;28218;53.342;-6.216;2023-11-22T02:35:32;102668.09;;;10.68;100.00
42591;BME280;28218;53.342;-6.216;2023-11-22T02:38:01;102666.31;;;10.69;100.00
42591;BME280;28218;53.342;-6.216;2023-11-22T02:40:30;102657.56;;;10.68;100.00
42591;BME280;28218;53.342;-6.216;2023-11-22T02:42:59;102637.31;;;10.69;100.00
42591;BME280;28218;53.342;-6.216;2023-11-22T02:45:32;102639.19;;;10.67;100.00
42591;BME280;28218;53.342;-6.216;2023-11-22T02:48:00;102644.94;;;10.72;100.00
42591;BME280;28218;53.342;-6.216;2023-11-22T02:50:30;102630.94;;;10.71;100.00
42591;BME280;28218;53.342;-6.216;2023-11-22T02:52:58;102623.03;;;10.71;100.00
42591;BME280;28218;53.342;-6.216;2023-11-22T02:55:27;102623.75;;;10.73;100.00
42591;BME280;28218;53.342;-6.216;2023-11-22T02:57:57;102620.28;;;10.73;100.00
42591;BME280;28218;53.342;-6.216;2023-11-22T03:00:25;102627.47;;;10.71;100.00
42591;BME280;28218;53.342;-6.216;2023-11-22T03:02:54;102630.94;;;10.71;100.00
42591;BME280;28218;53.342;-6.216;2023-11-22T03:05:23;102630.09;;;10.71;100.00
42591;BME280;28218;53.342;-6.216;2023-11-22T03:07:52;102629.13;;;10.72;100.00
42591;BME280;28218;53.342;-6.216;2023-11-22T03:10:20;102626.50;;;10.72;100.00
42591;BME280;28218;53.342;-6.216;2023-11-22T03:12:48;102635.13;;;10.74;100.00
42591;BME280;28218;53.342;-6.216;2023-11-22T03:15:18;102637.63;;;10.75;100.00
42591;BME280;28218;53.342;-6.216;2023-11-22T03:17:46;102642.06;;;10.75;100.00
42591;BME280;28218;53.342;-6.216;2023-11-22T03:20:15;102641.09;;;10.76;100.00
42591;BME280;28218;53.342;-6.216;2023-11-22T03:22:43;102635.72;;;10.78;100.00
42591;BME280;28218;53.342;-6.216;2023-11-22T03:25:12;102635.59;;;10.79;100.00
42591;BME280;28218;53.342;-6.216;2023-11-22T03:27:40;102644.22;;;10.81;100.00
42591;BME280;28218;53.342;-6.216;2023-11-22T03:30:09;102645.19;;;10.80;100.00
42591;BME280;28218;53.342;-6.216;2023-11-22T03:32:40;102636.44;;;10.80;100.00
42591;BME280;28218;53.342;-6.216;2023-11-22T03:35:09;102654.75;;;10.81;100.00
42591;BME280;28218;53.342;-6.216;2023-11-22T03:37:39;102668.69;;;10.83;100.00
42591;BME280;28218;53.342;-6.216;2023-11-22T03:40:08;102659.19;;;10.81;100.00
42591;BME280;28218;53.342;-6.216;2023-11-22T03:42:38;102655.72;;;10.80;100.00
42591;BME280;28218;53.342;-6.216;2023-11-22T03:45:07;102652.13;;;10.81;100.00
42591;BME280;28218;53.342;-6.216;2023-11-22T03:47:36;102639.91;;;10.80;100.00
42591;BME280;28218;53.342;-6.216;2023-11-22T03:50:07;102651.19;;;10.82;100.00
42591;BME280;28218;53.342;-6.216;2023-11-22T03:52:37;102640.50;;;10.84;100.00
42591;BME280;28218;53.342;-6.216;2023-11-22T03:55:06;102623.59;;;10.86;100.00
42591;BME280;28218;53.342;-6.216;2023-11-22T03:57:34;102642.03;;;10.86;100.00
42591;BME280;28218;53.342;-6.216;2023-11-22T04:00:02;102635.94;;;10.86;100.00
42591;BME280;28218;53.342;-6.216;2023-11-22T04:02:33;102630.78;;;10.84;100.00
42591;BME280;28218;53.342;-6.216;2023-11-22T04:05:01;102621.22;;;10.83;100.00
42591;BME280;28218;53.342;-6.216;2023-11-22T04:07:31;102630.78;;;10.84;100.00
42591;BME280;28218;53.342;-6.216;2023-11-22T04:10:00;102609.94;;;10.81;100.00
42591;BME280;28218;53.342;-6.216;2023-11-22T04:12:28;102615.22;;;10.81;100.00
42591;BME280;28218;53.342;-6.216;2023-11-22T04:14:59;102603.81;;;10.81;100.00
42591;BME280;28218;53.342;-6.216;2023-11-22T04:17:28;102604.66;;;10.81;100.00
42591;BME280;28218;53.342;-6.216;2023-11-22T04:19:57;102612.56;;;10.81;100.00
42591;BME280;28218;53.342;-6.216;2023-11-22T04:22:25;102622.03;;;10.84;100.00
42591;BME280;28218;53.342;-6.216;2023-11-22T04:24:54;102636.06;;;10.84;100.00
42591;BME280;28218;53.342;-6.216;2023-11-22T04:27:22;102636.19;;;10.83;100.00
42591;BME280;28218;53.342;-6.216;2023-11-22T04:29:51;102622.19;;;10.82;100.00
42591;BME280;28218;53.342;-6.216;2023-11-22T04:32:19;102637.88;;;10.84;100.00
42591;BME280;28218;53.342;-6.216;2023-11-22T04:34:48;102640.63;;;10.82;100.00
42591;BME280;28218;53.342;-6.216;2023-11-22T04:37:17;102645.78;;;10.84;100.00
42591;BME280;28218;53.342;-6.216;2023-11-22T04:39:45;102634.50;;;10.82;100.00
42591;BME280;28218;53.342;-6.216;2023-11-22T04:42:20;102639.66;;;10.83;100.00
42591;BME280;28218;53.342;-6.216;2023-11-22T04:44:49;102641.34;;;10.84;100.00
42591;BME280;28218;53.342;-6.216;2023-11-22T04:47:17;102631.50;;;10.86;100.00
42591;BME280;28218;53.342;-6.216;2023-11-22T04:49:46;102607.75;;;10.86;100.00
42591;BME280;28218;53.342;-6.216;2023-11-22T04:52:14;102607.75;;;10.86;100.00
42591;BME280;28218;53.342;-6.216;2023-11-22T04:54:43;102593.63;;;10.87;100.00
42591;BME280;28218;53.342;-6.216;2023-11-22T04:57:11;102590.28;;;10.85;100.00
42591;BME280;28218;53.342;-6.216;2023-11-22T04:59:41;102584.16;;;10.85;100.00
42591;BME280;28218;53.342;-6.216;2023-11-22T05:02:09;102574.44;;;10.85;100.00
42591;BME280;28218;53.342;-6.216;2023-11-22T05:04:38;102580.44;;;10.87;100.00
42591;BME280;28218;53.342;-6.216;2023-11-22T05:07:06;102567.25;;;10.87;100.00
42591;BME280;28218;53.342;-6.216;2023-11-22T05:09:35;102583.09;;;10.87;100.00
42591;BME280;28218;53.342;-6.216;2023-11-22T05:12:03;102554.91;;;10.88;100.00
42591;BME280;28218;53.342;-6.216;2023-11-22T05:14:31;102568.19;;;10.86;100.00
42591;BME280;28218;53.342;-6.216;2023-11-22T05:17:01;102560.06;;;10.89;100.00
42591;BME280;28218;53.342;-6.216;2023-11-22T05:19:30;102563.38;;;10.91;100.00
42591;BME280;28218;53.342;-6.216;2023-11-22T05:21:59;102550.94;;;10.93;100.00
42591;BME280;28218;53.342;-6.216;2023-11-22T05:24:27;102553.56;;;10.93;100.00
42591;BME280;28218;53.342;-6.216;2023-11-22T05:26:55;102567.44;;;10.95;100.00
42591;BME280;28218;53.342;-6.216;2023-11-22T05:29:23;102568.19;;;10.97;100.00
42591;BME280;28218;53.342;-6.216;2023-11-22T05:31:58;102575.97;;;10.99;100.00
42591;BME280;28218;53.342;-6.216;2023-11-22T05:34:28;102574.06;;;11.01;100.00
42591;BME280;28218;53.342;-6.216;2023-11-22T05:36:56;102574.75;;;11.03;100.00
42591;BME280;28218;53.342;-6.216;2023-11-22T05:39:24;102576.41;;;11.04;100.00
42591;BME280;28218;53.342;-6.216;2023-11-22T05:41:53;102581.44;;;11.07;100.00
42591;BME280;28218;53.342;-6.216;2023-11-22T05:44:21;102589.38;;;11.07;100.00
42591;BME280;28218;53.342;-6.216;2023-11-22T05:46:49;102592.69;;;11.09;100.00
42591;BME280;28218;53.342;-6.216;2023-11-22T05:49:17;102604.00;;;11.11;100.00
42591;BME280;28218;53.342;-6.216;2023-11-22T05:51:47;102597.75;;;11.12;100.00
42591;BME280;28218;53.342;-6.216;2023-11-22T05:54:15;102592.47;;;11.12;100.00
42591;BME280;28218;53.342;-6.216;2023-11-22T05:56:43;102591.63;;;11.12;100.00
42591;BME280;28218;53.342;-6.216;2023-11-22T05:59:11;102577.47;;;11.13;100.00
42591;BME280;28218;53.342;-6.216;2023-11-22T06:01:40;102581.19;;;11.10;100.00
42591;BME280;28218;53.342;-6.216;2023-11-22T06:04:08;102586.59;;;11.09;100.00
42591;BME280;28218;53.342;-6.216;2023-11-22T06:06:37;102588.25;;;11.10;100.00
42591;BME280;28218;53.342;-6.216;2023-11-22T06:09:07;102584.69;;;11.11;100.00
42591;BME280;28218;53.342;-6.216;2023-11-22T06:11:39;102563.69;;;11.09;100.00
42591;BME280;28218;53.342;-6.216;2023-11-22T06:14:07;102569.78;;;11.10;100.00
42591;BME280;28218;53.342;-6.216;2023-11-22T06:16:35;102569.09;;;11.08;100.00
42591;BME280;28218;53.342;-6.216;2023-11-22T06:19:03;102574.13;;;11.11;100.00
42591;BME280;28218;53.342;-6.216;2023-11-22T06:21:32;102576.03;;;11.09;100.00
42591;BME280;28218;53.342;-6.216;2023-11-22T06:24:00;102578.69;;;11.09;100.00
42591;BME280;28218;53.342;-6.216;2023-11-22T06:26:32;102570.06;;;11.07;100.00
42591;BME280;28218;53.342;-6.216;2023-11-22T06:29:00;102566.31;;;11.09;100.00
42591;BME280;28218;53.342;-6.216;2023-11-22T06:31:29;102575.22;;;11.08;100.00
42591;BME280;28218;53.342;-6.216;2023-11-22T06:33:58;102582.53;;;11.05;100.00
42591;BME280;28218;53.342;-6.216;2023-11-22T06:36:28;102577.97;;;11.07;100.00
42591;BME280;28218;53.342;-6.216;2023-11-22T06:38:57;102571.75;;;11.08;100.00
42591;BME280;28218;53.342;-6.216;2023-11-22T06:41:25;102575.34;;;11.07;100.00
42591;BME280;28218;53.342;-6.216;2023-11-22T06:43:57;102570.75;;;11.09;100.00
42591;BME280;28218;53.342;-6.216;2023-11-22T06:46:25;102565.25;;;11.12;100.00
42591;BME280;28218;53.342;-6.216;2023-11-22T06:48:54;102575.81;;;11.12;100.00
42591;BME280;28218;53.342;-6.216;2023-11-22T06:51:23;102569.69;;;11.11;100.00
42591;BME280;28218;53.342;-6.216;2023-11-22T06:53:51;102584.56;;;11.12;100.00
42591;BME280;28218;53.342;-6.216;2023-11-22T06:56:24;102576.63;;;11.12;100.00
42591;BME280;28218;53.342;-6.216;2023-11-22T06:58:52;102581.78;;;11.14;100.00
42591;BME280;28218;53.342;-6.216;2023-11-22T07:01:24;102570.16;;;11.16;100.00
42591;BME280;28218;53.342;-6.216;2023-11-22T07:03:53;102582.38;;;11.17;100.00
42591;BME280;28218;53.342;-6.216;2023-11-22T07:06:22;102586.69;;;11.18;100.00
42591;BME280;28218;53.342;-6.216;2023-11-22T07:08:50;102579.72;;;11.17;100.00
42591;BME280;28218;53.342;-6.216;2023-11-22T07:11:22;102585.84;;;11.18;100.00
42591;BME280;28218;53.342;-6.216;2023-11-22T07:13:51;102599.16;;;11.16;100.00
42591;BME280;28218;53.342;-6.216;2023-11-22T07:16:20;102598.06;;;11.19;100.00
42591;BME280;28218;53.342;-6.216;2023-11-22T07:18:49;102601.28;;;11.22;100.00
42591;BME280;28218;53.342;-6.216;2023-11-22T07:21:18;102590.59;;;11.24;100.00
42591;BME280;28218;53.342;-6.216;2023-11-22T07:23:48;102585.59;;;11.21;100.00
42591;BME280;28218;53.342;-6.216;2023-11-22T07:26:19;102602.25;;;11.21;100.00
42591;BME280;28218;53.342;-6.216;2023-11-22T07:28:47;102594.94;;;11.25;100.00
42591;BME280;28218;53.342;-6.216;2023-11-22T07:31:15;102604.75;;;11.23;100.00
42591;BME280;28218;53.342;-6.216;2023-11-22T07:33:44;102597.81;;;11.22;100.00
42591;BME280;28218;53.342;-6.216;2023-11-22T07:36:13;102603.09;;;11.22;100.00
42591;BME280;28218;53.342;-6.216;2023-11-22T07:38:42;102596.25;;;11.19;100.00
42591;BME280;28218;53.342;-6.216;2023-11-22T07:41:10;102606.13;;;11.17;100.00
42591;BME280;28218;53.342;-6.216;2023-11-22T07:43:39;102599.63;;;11.21;100.00
42591;BME280;28218;53.342;-6.216;2023-11-22T07:46:08;102595.19;;;11.22;100.00
42591;BME280;28218;53.342;-6.216;2023-11-22T07:48:40;102592.78;;;11.19;100.00
42591;BME280;28218;53.342;-6.216;2023-11-22T07:51:09;102597.00;;;11.21;100.00
42591;BME280;28218;53.342;-6.216;2023-11-22T07:53:39;102589.22;;;11.20;100.00
42591;BME280;28218;53.342;-6.216;2023-11-22T07:56:08;102590.59;;;11.24;100.00
42591;BME280;28218;53.342;-6.216;2023-11-22T07:58:37;102578.38;;;11.23;100.00
42591;BME280;28218;53.342;-6.216;2023-11-22T08:01:06;102595.03;;;11.23;100.00
42591;BME280;28218;53.342;-6.216;2023-11-22T08:03:41;102574.78;;;11.24;100.00
42591;BME280;28218;53.342;-6.216;2023-11-22T08:06:13;102572.13;;;11.24;100.00
42591;BME280;28218;53.342;-6.216;2023-11-22T08:08:43;102580.78;;;11.26;100.00
42591;BME280;28218;53.342;-6.216;2023-11-22T08:11:13;102570.22;;;11.26;100.00
42591;BME280;28218;53.342;-6.216;2023-11-22T08:13:42;102568.41;;;11.26;100.00
42591;BME280;28218;53.342;-6.216;2023-11-22T08:16:12;102588.69;;;11.26;100.00
42591;BME280;28218;53.342;-6.216;2023-11-22T08:18:41;102581.47;;;11.28;100.00
42591;BME280;28218;53.342;-6.216;2023-11-22T08:21:10;102581.38;;;11.30;100.00
42591;BME280;28218;53.342;-6.216;2023-11-22T08:23:39;102592.75;;;11.30;100.00
42591;BME280;28218;53.342;-6.216;2023-11-22T08:26:08;102592.75;;;11.30;100.00
42591;BME280;28218;53.342;-6.216;2023-11-22T08:28:39;102585.78;;;11.29;100.00
42591;BME280;28218;53.342;-6.216;2023-11-22T08:31:07;102590.13;;;11.30;100.00
42591;BME280;28218;53.342;-6.216;2023-11-22T08:33:37;102595.41;;;11.30;100.00
42591;BME280;28218;53.342;-6.216;2023-11-22T08:36:11;102586.38;;;11.33;100.00
42591;BME280;28218;53.342;-6.216;2023-11-22T08:38:39;102586.25;;;11.34;100.00
42591;BME280;28218;53.342;-6.216;2023-11-22T08:41:11;102588.03;;;11.34;100.00
42591;BME280;28218;53.342;-6.216;2023-11-22T08:43:41;102583.47;;;11.36;100.00
42591;BME280;28218;53.342;-6.216;2023-11-22T08:46:09;102577.22;;;11.37;100.00
42591;BME280;28218;53.342;-6.216;2023-11-22T08:48:41;102563.06;;;11.38;100.00
42591;BME280;28218;53.342;-6.216;2023-11-22T08:51:10;102567.41;;;11.39;100.00
42591;BME280;28218;53.342;-6.216;2023-11-22T08:53:38;102569.91;;;11.40;100.00
42591;BME280;28218;53.342;-6.216;2023-11-22T08:56:07;102566.03;;;11.44;100.00
42591;BME280;28218;53.342;-6.216;2023-11-22T08:58:38;102571.03;;;11.47;100.00
42591;BME280;28218;53.342;-6.216;2023-11-22T09:01:07;102562.06;;;11.50;100.00
42591;BME280;28218;53.342;-6.216;2023-11-22T09:03:35;102557.47;;;11.52;100.00
42591;BME280;28218;53.342;-6.216;2023-11-22T09:06:05;102556.53;;;11.53;100.00
42591;BME280;28218;53.342;-6.216;2023-11-22T09:08:34;102551.94;;;11.55;100.00
42591;BME280;28218;53.342;-6.216;2023-11-22T09:11:03;102544.72;;;11.57;100.00
42591;BME280;28218;53.342;-6.216;2023-11-22T09:13:33;102534.72;;;11.61;100.00
42591;BME280;28218;53.342;-6.216;2023-11-22T09:16:04;102522.25;;;11.63;100.00
42591;BME280;28218;53.342;-6.216;2023-11-22T09:18:32;102530.16;;;11.63;100.00
42591;BME280;28218;53.342;-6.216;2023-11-22T09:21:01;102536.16;;;11.65;100.00
42591;BME280;28218;53.342;-6.216;2023-11-22T09:23:29;102535.06;;;11.67;100.00
42591;BME280;28218;53.342;-6.216;2023-11-22T09:25:58;102534.22;;;11.67;100.00
42591;BME280;28218;53.342;-6.216;2023-11-22T09:28:27;102522.81;;;11.66;100.00
42591;BME280;28218;53.342;-6.216;2023-11-22T09:30:55;102522.41;;;11.71;100.00
42591;BME280;28218;53.342;-6.216;2023-11-22T09:33:29;102520.59;;;11.71;100.00
42591;BME280;28218;53.342;-6.216;2023-11-22T09:35:58;102525.78;;;11.73;100.00
42591;BME280;28218;53.342;-6.216;2023-11-22T09:38:26;102521.47;;;11.72;100.00
42591;BME280;28218;53.342;-6.216;2023-11-22T09:40:54;102530.09;;;11.74;100.00
42591;BME280;28218;53.342;-6.216;2023-11-22T09:43:23;102537.03;;;11.75;100.00
42591;BME280;28218;53.342;-6.216;2023-11-22T09:45:52;102521.19;;;11.75;100.00
42591;BME280;28218;53.342;-6.216;2023-11-22T09:48:24;102526.34;;;11.76;100.00
42591;BME280;28218;53.342;-6.216;2023-11-22T09:51:03;102522.59;;;11.79;100.00
42591;BME280;28218;53.342;-6.216;2023-11-22T09:53:33;102503.13;;;11.80;100.00
42591;BME280;28218;53.342;-6.216;2023-11-22T09:56:03;102506.59;;;11.81;100.00
42591;BME280;28218;53.342;-6.216;2023-11-22T09:58:34;102513.47;;;11.83;100.00
42591;BME280;28218;53.342;-6.216;2023-11-22T10:01:03;102502.91;;;11.83;100.00
42591;BME280;28218;53.342;-6.216;2023-11-22T10:03:32;102506.25;;;11.85;100.00
42591;BME280;28218;53.342;-6.216;2023-11-22T10:06:02;102504.56;;;11.84;100.00
42591;BME280;28218;53.342;-6.216;2023-11-22T10:08:32;102510.84;;;11.83;100.00
42591;BME280;28218;53.342;-6.216;2023-11-22T10:11:00;102513.47;;;11.83;100.00
42591;BME280;28218;53.342;-6.216;2023-11-22T10:13:28;102512.38;;;11.86;100.00
42591;BME280;28218;53.342;-6.216;2023-11-22T10:16:09;102519.91;;;11.90;100.00
42591;BME280;28218;53.342;-6.216;2023-11-22T10:18:40;102514.88;;;11.87;100.00
42591;BME280;28218;53.342;-6.216;2023-11-22T10:21:20;102514.63;;;11.90;100.00
42591;BME280;28218;53.342;-6.216;2023-11-22T10:23:49;102512.69;;;11.92;100.00
42591;BME280;28218;53.342;-6.216;2023-11-22T10:26:18;102504.34;;;11.97;100.00
42591;BME280;28218;53.342;-6.216;2023-11-22T10:28:50;102515.75;;;11.97;100.00
42591;BME280;28218;53.342;-6.216;2023-11-22T10:31:18;102513.13;;;11.97;100.00
42591;BME280;28218;53.342;-6.216;2023-11-22T10:33:46;102506.59;;;12.01;100.00
42591;BME280;28218;53.342;-6.216;2023-11-22T10:36:14;102503.13;;;12.01;100.00
42591;BME280;28218;53.342;-6.216;2023-11-22T10:38:47;102495.63;;;12.06;100.00
42591;BME280;28218;53.342;-6.216;2023-11-22T10:41:19;102513.00;;;12.09;100.00
42591;BME280;28218;53.342;-6.216;2023-11-22T10:43:51;102504.13;;;12.10;100.00
42591;BME280;28218;53.342;-6.216;2023-11-22T10:46:21;102515.53;;;12.10;100.00
42591;BME280;28218;53.342;-6.216;2023-11-22T10:48:54;102513.72;;;12.11;100.00
42591;BME280;28218;53.342;-6.216;2023-11-22T10:51:26;102514.16;;;12.16;100.00
42591;BME280;28218;53.342;-6.216;2023-11-22T10:53:59;102508.16;;;12.14;100.00
42591;BME280;28218;53.342;-6.216;2023-11-22T10:56:36;102518.59;;;12.15;100.00
42591;BME280;28218;53.342;-6.216;2023-11-22T10:59:10;102519.19;;;12.19;100.00
42591;BME280;28218;53.342;-6.216;2023-11-22T11:01:44;102520.13;;;12.18;100.00
42591;BME280;28218;53.342;-6.216;2023-11-22T11:04:19;102517.47;;;12.18;100.00
42591;BME280;28218;53.342;-6.216;2023-11-22T11:06:51;102504.69;;;12.23;100.00
42591;BME280;28218;53.342;-6.216;2023-11-22T11:09:24;102509.72;;;12.26;100.00
42591;BME280;28218;53.342;-6.216;2023-11-22T11:11:59;102503.34;;;12.28;100.00
42591;BME280;28218;53.342;-6.216;2023-11-22T11:14:34;102505.03;;;12.39;100.00
42591;BME280;28218;53.342;-6.216;2023-11-22T11:17:04;102496.38;;;12.37;100.00
42591;BME280;28218;53.342;-6.216;2023-11-22T11:19:33;102504.75;;;12.42;100.00
42591;BME280;28218;53.342;-6.216;2023-11-22T11:22:01;102509.19;;;12.42;100.00
42591;BME280;28218;53.342;-6.216;2023-11-22T11:24:38;102484.56;;;12.41;100.00
42591;BME280;28218;53.342;-6.216;2023-11-22T11:27:07;102491.66;;;12.41;100.00
42591;BME280;28218;53.342;-6.216;2023-11-22T11:29:37;102491.97;;;12.38;100.00
42591;BME280;28218;53.342;-6.216;2023-11-22T11:32:10;102489.84;;;12.41;100.00
42591;BME280;28218;53.342;-6.216;2023-11-22T11:34:47;102488.19;;;12.40;100.00
42591;BME280;28218;53.342;-6.216;2023-11-22T11:37:19;102492.09;;;12.46;100.00
42591;BME280;28218;53.342;-6.216;2023-11-22T11:39:48;102497.25;;;12.47;100.00
42591;BME280;28218;53.342;-6.216;2023-11-22T11:42:16;102498.91;;;12.48;100.00
42591;BME280;28218;53.342;-6.216;2023-11-22T11:45:03;102488.59;;;12.45;100.00
42591;BME280;28218;53.342;-6.216;2023-11-22T11:47:33;102495.28;;;12.49;100.00
42591;BME280;28218;53.342;-6.216;2023-11-22T11:50:01;102498.19;;;12.46;100.00
42591;BME280;28218;53.342;-6.216;2023-11-22T11:52:29;102499.47;;;12.42;100.00
42591;BME280;28218;53.342;-6.216;2023-11-22T11:55:00;102494.44;;;12.39;100.00
42591;BME280;28218;53.342;-6.216;2023-11-22T11:57:30;102514.88;;;12.37;100.00
42591;BME280;28218;53.342;-6.216;2023-11-22T11:59:59;102513.78;;;12.40;100.00
42591;BME280;28218;53.342;-6.216;2023-11-22T12:02:30;102500.44;;;12.41;100.00
42591;BME280;28218;53.342;-6.216;2023-11-22T12:04:58;102496.13;;;12.40;100.00
42591;BME280;28218;53.342;-6.216;2023-11-22T12:07:27;102489.84;;;12.41;100.00
42591;BME280;28218;53.342;-6.216;2023-11-22T12:09:55;102499.91;;;12.47;100.00
42591;BME280;28218;53.342;-6.216;2023-11-22T12:12:25;102500.72;;;12.48;100.00
42591;BME280;28218;53.342;-6.216;2023-11-22T12:14:55;102504.78;;;12.52;100.00
42591;BME280;28218;53.342;-6.216;2023-11-22T12:17:25;102496.69;;;12.53;100.00
42591;BME280;28218;53.342;-6.216;2023-11-22T12:20:08;102485.84;;;12.57;100.00
42591;BME280;28218;53.342;-6.216;2023-11-22T12:22:38;102489.03;;;12.60;100.00
42591;BME280;28218;53.342;-6.216;2023-11-22T12:25:08;102496.56;;;12.65;100.00
42591;BME280;28218;53.342;-6.216;2023-11-22T12:27:40;102494.22;;;12.71;100.00
42591;BME280;28218;53.342;-6.216;2023-11-22T12:30:09;102488.91;;;12.71;100.00
42591;BME280;28218;53.342;-6.216;2023-11-22T12:32:39;102474.72;;;12.72;100.00
42591;BME280;28218;53.342;-6.216;2023-11-22T12:35:09;102483.63;;;12.71;100.00
42591;BME280;28218;53.342;-6.216;2023-11-22T12:37:38;102487.25;;;12.70;100.00
42591;BME280;28218;53.342;-6.216;2023-11-22T12:40:09;102476.78;;;12.69;100.00
42591;BME280;28218;53.342;-6.216;2023-11-22T12:42:48;102469.16;;;12.66;100.00